Washita, Oklahoma
Current Conditions -  °F | °C
As of 1:58 AM on Friday 24 Oct 2014 (Local Time) from KFSI Reporting Station
Clear Clear  
Wind Chill: 62°   Ceiling: Unl
Heat Index: 62°   Visibility: 10mi
Dew Point: 58°   Wind: 8mph
Humidity: 86%   Direction: 160°SSE
Pressure: 30.08"   Gusts: NA
Location:  35.1°N, 98.34°W
Report Text: KFSI 240658Z AUTO 16007KT 10SM CLR 17/14 A3008 RMK AO2 SLP180 T01660143
Loading
Personal Weather Stations






























Interactive Weather Map
Tropical Storm Tracking
New forecast layout! Learn more

10-Day Weather Forecast

Advertisements
Track Severe Weather on mobile